Time;durP1;ratioP1;P1;durP2;ratioP2;P2;SDS_P1;SDS_P2;PMS_P1;PMS_P2;Temp;Humidity;BMP_temperature;BMP_pressure;BME280_temperature;BME280_humidity;BME280_pressure;Samples;Min_cycle;Max_cycle;Signal;HPM_P1;HPM_P2
2023/07/11 00:00:03;;;;;;;1.93;1.63;;;;;;;;;;5031782;28;20212;-88
2023/07/11 00:02:34;;;;;;;1.07;1.07;;;;;;;;;;5032319;28;20203;-88
2023/07/11 00:05:05;;;;;;;4.27;1.17;;;;;;;;;;5032084;28;20205;-88
2023/07/11 00:07:37;;;;;;;0.57;0.57;;;;;;;;;;5032242;28;20208;-88
2023/07/11 00:10:07;;;;;;;0.73;0.60;;;;;;;;;;5032059;28;20240;-88
2023/07/11 00:12:36;;;;;;;0.50;0.50;;;;;;;;;;5031866;28;20228;-88
2023/07/11 00:15:06;;;;;;;2.77;0.93;;;;;;;;;;5032181;28;20207;-89
2023/07/11 00:17:42;;;;;;;0.73;0.73;;;;;;;;;;5031323;28;20252;-88
2023/07/11 00:20:18;;;;;;;0.50;0.50;;;;;;;;;;5032443;28;20296;-88
2023/07/11 00:22:47;;;;;;;0.67;0.67;;;;;;;;;;5031898;28;20235;-88
2023/07/11 00:25:16;;;;;;;0.40;0.40;;;;;;;;;;5031978;28;20241;-88
2023/07/11 00:27:44;;;;;;;0.30;0.30;;;;;;;;;;5031783;28;20225;-89
2023/07/11 00:30:15;;;;;;;0.30;0.30;;;;;;;;;;5031823;28;20205;-88
2023/07/11 00:32:46;;;;;;;0.30;0.30;;;;;;;;;;5032095;28;20292;-88
2023/07/11 00:35:16;;;;;;;0.30;0.30;;;;;;;;;;5031492;28;20206;-89
2023/07/11 00:37:45;;;;;;;0.30;0.30;;;;;;;;;;5032025;28;20287;-88
2023/07/11 00:40:17;;;;;;;0.30;0.30;;;;;;;;;;5032272;28;20206;-89
2023/07/11 00:42:51;;;;;;;1.03;0.93;;;;;;;;;;5032234;28;20313;-88
2023/07/11 00:45:38;;;;;;;0.63;0.63;;;;;;;;;;5032141;28;20210;-90
2023/07/11 00:48:06;;;;;;;0.97;0.97;;;;;;;;;;5036666;28;20213;-90
2023/07/11 00:50:37;;;;;;;0.40;0.40;;;;;;;;;;5036814;28;20204;-90
2023/07/11 00:53:05;;;;;;;0.90;0.90;;;;;;;;;;5035885;28;20198;-90
2023/07/11 00:55:34;;;;;;;8.47;2.40;;;;;;;;;;5035980;28;20204;-90
2023/07/11 00:58:05;;;;;;;0.40;0.40;;;;;;;;;;5036054;28;20197;-91
2023/07/11 01:00:33;;;;;;;0.30;0.30;;;;;;;;;;5035798;28;20201;-90
2023/07/11 01:03:04;;;;;;;0.40;0.40;;;;;;;;;;5035871;28;20223;-91
2023/07/11 01:05:38;;;;;;;0.30;0.30;;;;;;;;;;5035772;28;20210;-88
2023/07/11 01:08:09;;;;;;;1.10;1.07;;;;;;;;;;5035891;28;20256;-90
2023/07/11 01:10:37;;;;;;;0.50;0.50;;;;;;;;;;5035713;28;20232;-88
2023/07/11 01:13:06;;;;;;;2.43;2.23;;;;;;;;;;5035454;28;20198;-88
2023/07/11 01:15:37;;;;;;;0.73;0.73;;;;;;;;;;5034842;28;20201;-88
2023/07/11 01:18:06;;;;;;;0.40;0.40;;;;;;;;;;5034851;28;20234;-88
2023/07/11 01:20:42;;;;;;;0.77;0.77;;;;;;;;;;5035592;28;20259;-89
2023/07/11 01:23:14;;;;;;;1.13;0.93;;;;;;;;;;5035065;28;20216;-88
2023/07/11 01:25:43;;;;;;;1.70;1.70;;;;;;;;;;5035559;28;20208;-89
2023/07/11 01:28:13;;;;;;;0.60;0.60;;;;;;;;;;5034906;28;20229;-88
2023/07/11 01:30:42;;;;;;;1.17;1.07;;;;;;;;;;5035495;28;20203;-88
2023/07/11 01:33:11;;;;;;;1.57;1.50;;;;;;;;;;5034875;28;20195;-89
2023/07/11 01:35:45;;;;;;;0.30;0.30;;;;;;;;;;5034622;28;20202;-89
2023/07/11 01:38:16;;;;;;;0.50;0.50;;;;;;;;;;5034824;28;20322;-88
2023/07/11 01:40:47;;;;;;;0.43;0.43;;;;;;;;;;5035099;28;20261;-88
2023/07/11 01:43:19;;;;;;;1.80;1.60;;;;;;;;;;5034831;28;20220;-88
2023/07/11 01:45:56;;;;;;;1.07;1.03;;;;;;;;;;5034881;28;20263;-88
2023/07/11 01:48:25;;;;;;;0.30;0.30;;;;;;;;;;5035371;28;20237;-89
2023/07/11 01:50:53;;;;;;;0.40;0.40;;;;;;;;;;5035547;28;20209;-88
2023/07/11 01:53:23;;;;;;;0.67;0.67;;;;;;;;;;5034443;28;20202;-89
2023/07/11 01:55:56;;;;;;;1.07;1.07;;;;;;;;;;5034549;28;20244;-89
2023/07/11 01:58:25;;;;;;;0.57;0.57;;;;;;;;;;5034668;28;20203;-88
2023/07/11 02:01:00;;;;;;;1.43;1.40;;;;;;;;;;5034643;28;20271;-90
2023/07/11 02:03:41;;;;;;;0.87;0.87;;;;;;;;;;5034902;28;20220;-90
2023/07/11 02:06:10;;;;;;;0.97;0.97;;;;;;;;;;5034624;28;20195;-90
2023/07/11 02:08:50;;;;;;;1.30;0.93;;;;;;;;;;5034864;28;20200;-90
2023/07/11 02:11:21;;;;;;;5.20;1.03;;;;;;;;;;5034641;28;20292;-90
2023/07/11 02:13:50;;;;;;;1.27;1.27;;;;;;;;;;5035097;28;20197;-90
2023/07/11 02:16:18;;;;;;;0.43;0.43;;;;;;;;;;5034604;28;20196;-90
2023/07/11 02:18:47;;;;;;;1.77;1.67;;;;;;;;;;5034448;28;20198;-90
2023/07/11 02:21:16;;;;;;;0.83;0.83;;;;;;;;;;5034752;28;20220;-90
2023/07/11 02:23:46;;;;;;;0.30;0.30;;;;;;;;;;5034494;28;20280;-90
2023/07/11 02:26:15;;;;;;;0.30;0.30;;;;;;;;;;5033843;28;20202;-90
2023/07/11 02:28:44;;;;;;;0.30;0.30;;;;;;;;;;5034489;28;20278;-89
2023/07/11 02:31:16;;;;;;;1.03;1.03;;;;;;;;;;5034726;28;20247;-90
2023/07/11 02:33:44;;;;;;;0.50;0.50;;;;;;;;;;5035074;28;20199;-90
2023/07/11 02:36:13;;;;;;;0.97;0.97;;;;;;;;;;5033551;28;20226;-90
2023/07/11 02:38:42;;;;;;;0.30;0.30;;;;;;;;;;5034134;28;20288;-90
2023/07/11 02:41:12;;;;;;;0.30;0.30;;;;;;;;;;5034552;28;20245;-90
2023/07/11 02:43:43;;;;;;;0.67;0.67;;;;;;;;;;5033848;28;20222;-89
2023/07/11 02:46:13;;;;;;;0.30;0.30;;;;;;;;;;5033778;28;20231;-88
2023/07/11 02:48:45;;;;;;;0.50;0.50;;;;;;;;;;5034311;28;20305;-89
2023/07/11 02:51:21;;;;;;;0.73;0.73;;;;;;;;;;5033879;28;20198;-89
2023/07/11 02:53:57;;;;;;;0.40;0.40;;;;;;;;;;5033424;28;20258;-88
2023/07/11 02:56:28;;;;;;;0.80;0.80;;;;;;;;;;5033265;28;20199;-88
2023/07/11 02:59:00;;;;;;;0.30;0.30;;;;;;;;;;5034123;28;20210;-89
2023/07/11 03:01:32;;;;;;;0.40;0.40;;;;;;;;;;5033538;28;20213;-87
2023/07/11 03:04:02;;;;;;;0.30;0.30;;;;;;;;;;5033447;28;20221;-89
2023/07/11 03:06:31;;;;;;;0.30;0.30;;;;;;;;;;5033582;28;20215;-89
2023/07/11 03:08:59;;;;;;;0.30;0.30;;;;;;;;;;5033128;28;20209;-89
2023/07/11 03:11:32;;;;;;;1.10;1.10;;;;;;;;;;5032992;28;20210;-88
2023/07/11 03:14:04;;;;;;;1.47;1.47;;;;;;;;;;5033574;28;20191;-88
2023/07/11 03:16:32;;;;;;;0.77;0.63;;;;;;;;;;5033532;28;20199;-89
2023/07/11 03:19:02;;;;;;;0.40;0.40;;;;;;;;;;5032889;28;20210;-89
2023/07/11 03:21:31;;;;;;;1.77;1.67;;;;;;;;;;5032868;28;20194;-90
2023/07/11 03:24:02;;;;;;;1.13;1.13;;;;;;;;;;5033390;28;20225;-90
2023/07/11 03:26:34;;;;;;;0.83;0.83;;;;;;;;;;5033528;28;20206;-90
2023/07/11 03:29:03;;;;;;;0.83;0.83;;;;;;;;;;5032930;28;20357;-90
2023/07/11 03:31:31;;;;;;;0.40;0.40;;;;;;;;;;5033652;28;20212;-90
2023/07/11 03:34:00;;;;;;;0.37;0.37;;;;;;;;;;5033125;28;20293;-90
2023/07/11 03:36:29;;;;;;;0.60;0.60;;;;;;;;;;5032679;28;20291;-90
2023/07/11 03:38:58;;;;;;;1.40;1.30;;;;;;;;;;5033091;28;20229;-90
2023/07/11 03:41:29;;;;;;;0.70;0.70;;;;;;;;;;5033764;28;20228;-90
2023/07/11 03:44:03;;;;;;;0.40;0.40;;;;;;;;;;5033116;28;20217;-90
2023/07/11 03:46:33;;;;;;;0.30;0.30;;;;;;;;;;5032893;28;20216;-90
2023/07/11 03:49:02;;;;;;;0.63;0.63;;;;;;;;;;5033244;28;20235;-90
2023/07/11 03:51:33;;;;;;;0.30;0.30;;;;;;;;;;5032903;28;20210;-90
2023/07/11 03:54:04;;;;;;;33.87;4.67;;;;;;;;;;5033326;28;20202;-90
2023/07/11 03:56:33;;;;;;;0.40;0.40;;;;;;;;;;5032575;28;20256;-90
2023/07/11 03:59:06;;;;;;;0.40;0.40;;;;;;;;;;5032909;28;20205;-90
2023/07/11 04:01:41;;;;;;;1.47;1.37;;;;;;;;;;5032747;28;20238;-90
2023/07/11 04:04:12;;;;;;;0.90;0.70;;;;;;;;;;5032893;28;20220;-90
2023/07/11 04:06:41;;;;;;;0.40;0.40;;;;;;;;;;5032743;28;20214;-90
2023/07/11 04:09:12;;;;;;;1.20;1.13;;;;;;;;;;5033023;28;20223;-90
2023/07/11 04:11:42;;;;;;;4.67;1.30;;;;;;;;;;5032141;28;20201;-90
2023/07/11 04:14:17;;;;;;;6.90;2.30;;;;;;;;;;5032582;28;20193;-90
2023/07/11 04:16:47;;;;;;;0.67;0.67;;;;;;;;;;5032111;28;20288;-90
2023/07/11 04:19:20;;;;;;;0.30;0.30;;;;;;;;;;5033053;28;20237;-90
2023/07/11 04:21:56;;;;;;;0.30;0.30;;;;;;;;;;5032099;28;20210;-90
2023/07/11 04:24:29;;;;;;;0.93;0.93;;;;;;;;;;5032240;28;20218;-89
2023/07/11 04:27:03;;;;;;;1.10;1.10;;;;;;;;;;5032202;28;20194;-90
2023/07/11 04:29:45;;;;;;;1.27;1.23;;;;;;;;;;5032697;28;20242;-90
2023/07/11 04:32:15;;;;;;;0.50;0.50;;;;;;;;;;5033272;28;20267;-90
2023/07/11 04:34:44;;;;;;;1.33;1.23;;;;;;;;;;5032538;28;20187;-90
2023/07/11 04:37:16;;;;;;;0.40;0.40;;;;;;;;;;5031664;28;20276;-89
2023/07/11 04:39:44;;;;;;;1.20;0.73;;;;;;;;;;5032127;28;20234;-89
2023/07/11 04:42:13;;;;;;;2.33;0.70;;;;;;;;;;5032230;28;20231;-88
2023/07/11 04:44:44;;;;;;;3.20;2.07;;;;;;;;;;5032074;28;20221;-89
2023/07/11 04:47:12;;;;;;;3.57;1.10;;;;;;;;;;5031833;28;20206;-89
2023/07/11 04:49:41;;;;;;;2.77;1.27;;;;;;;;;;5032328;28;20215;-89
2023/07/11 04:52:11;;;;;;;3.33;2.20;;;;;;;;;;5031528;28;20258;-89
2023/07/11 04:54:40;;;;;;;16.63;3.73;;;;;;;;;;5031522;28;20223;-89
2023/07/11 04:57:10;;;;;;;4.53;2.60;;;;;;;;;;5031681;28;20190;-88
2023/07/11 04:59:41;;;;;;;2.70;1.83;;;;;;;;;;5032625;28;20199;-89
2023/07/11 05:02:13;;;;;;;3.27;1.60;;;;;;;;;;5031380;28;20214;-89
2023/07/11 05:04:45;;;;;;;2.57;1.97;;;;;;;;;;5032016;28;20222;-90
2023/07/11 05:07:18;;;;;;;4.77;2.27;;;;;;;;;;5032375;28;20205;-91
2023/07/11 05:09:52;;;;;;;2.87;2.47;;;;;;;;;;5032369;28;20209;-90
2023/07/11 05:12:32;;;;;;;1.30;1.20;;;;;;;;;;5031963;28;20202;-88
2023/07/11 05:15:01;;;;;;;1.93;1.43;;;;;;;;;;5031761;28;20187;-90
2023/07/11 05:17:34;;;;;;;2.63;1.93;;;;;;;;;;5031757;28;20203;-89
2023/07/11 05:20:03;;;;;;;2.33;1.90;;;;;;;;;;5031377;28;20226;-89
2023/07/11 05:22:36;;;;;;;0.50;0.50;;;;;;;;;;5031318;28;20194;-89
2023/07/11 05:25:07;;;;;;;3.80;2.10;;;;;;;;;;5031763;28;20242;-89
2023/07/11 05:27:43;;;;;;;5.03;2.33;;;;;;;;;;5031725;28;20208;-89
2023/07/11 05:30:12;;;;;;;5.10;2.63;;;;;;;;;;5031666;28;20301;-89
2023/07/11 05:32:44;;;;;;;5.33;2.27;;;;;;;;;;5033605;28;20206;-89
2023/07/11 05:35:15;;;;;;;6.73;2.50;;;;;;;;;;5035500;28;20191;-90
2023/07/11 05:37:43;;;;;;;4.90;2.67;;;;;;;;;;5034906;28;20238;-89
2023/07/11 05:40:12;;;;;;;5.20;2.47;;;;;;;;;;5036156;28;20207;-89
2023/07/11 05:42:41;;;;;;;7.37;1.93;;;;;;;;;;5035732;28;20208;-89
2023/07/11 05:45:10;;;;;;;5.17;2.37;;;;;;;;;;5035402;28;20206;-89
2023/07/11 05:47:42;;;;;;;3.57;1.93;;;;;;;;;;5034935;28;20199;-90
2023/07/11 05:50:12;;;;;;;2.20;1.53;;;;;;;;;;5036284;28;20196;-89
2023/07/11 05:52:41;;;;;;;7.93;3.20;;;;;;;;;;5035510;28;20233;-88
2023/07/11 05:55:13;;;;;;;5.50;2.83;;;;;;;;;;5035236;28;20196;-89
2023/07/11 05:57:42;;;;;;;10.87;3.20;;;;;;;;;;5035768;28;20205;-90
2023/07/11 06:00:13;;;;;;;6.30;2.20;;;;;;;;;;5035634;28;20215;-91
2023/07/11 06:02:42;;;;;;;9.80;3.00;;;;;;;;;;5036059;28;20246;-86
2023/07/11 06:05:15;;;;;;;4.33;2.70;;;;;;;;;;5035350;28;20316;-90
2023/07/11 06:07:51;;;;;;;4.13;0.93;;;;;;;;;;5035472;28;20208;-90
2023/07/11 06:10:19;;;;;;;3.00;1.43;;;;;;;;;;5035689;28;20204;-90
2023/07/11 06:12:48;;;;;;;4.73;1.53;;;;;;;;;;5034731;28;20201;-90
2023/07/11 06:15:17;;;;;;;5.47;2.37;;;;;;;;;;5035019;28;20293;-90
2023/07/11 06:17:48;;;;;;;5.77;3.57;;;;;;;;;;5034935;28;20212;-90
2023/07/11 06:20:18;;;;;;;5.23;3.00;;;;;;;;;;5034871;28;20241;-91
2023/07/11 06:22:47;;;;;;;6.30;3.20;;;;;;;;;;5034743;28;20256;-91
2023/07/11 06:25:17;;;;;;;3.87;2.30;;;;;;;;;;5034271;28;22156;-91
2023/07/11 06:27:51;;;;;;;4.83;2.80;;;;;;;;;;5034713;28;20217;-90
2023/07/11 06:30:22;;;;;;;4.93;3.13;;;;;;;;;;5034244;28;20275;-90
2023/07/11 06:32:54;;;;;;;9.03;3.10;;;;;;;;;;5033867;28;20208;-90
2023/07/11 06:35:31;;;;;;;4.87;3.27;;;;;;;;;;5034422;28;20210;-90
2023/07/11 06:38:00;;;;;;;6.20;2.67;;;;;;;;;;5033921;28;20241;-90
2023/07/11 06:40:31;;;;;;;5.10;2.27;;;;;;;;;;5034226;28;20206;-89
2023/07/11 06:43:00;;;;;;;4.00;2.30;;;;;;;;;;5034136;28;20293;-91
2023/07/11 06:45:32;;;;;;;4.20;2.03;;;;;;;;;;5032512;28;20209;-90
2023/07/11 06:48:00;;;;;;;4.47;2.77;;;;;;;;;;5034377;28;20210;-91
2023/07/11 06:50:34;;;;;;;5.03;2.73;;;;;;;;;;5034595;28;20205;-88
2023/07/11 06:53:12;;;;;;;7.60;2.73;;;;;;;;;;5034729;28;20215;-91
2023/07/11 06:55:54;;;;;;;5.83;3.80;;;;;;;;;;5033988;28;20292;-90
2023/07/11 06:58:27;;;;;;;8.43;4.87;;;;;;;;;;5033739;28;20212;-91
2023/07/11 07:01:26;;;;;;;;;;;;;;;;;;;;;
2023/07/11 07:04:15;;;;;;;5.40;4.90;;;;;;;;;;5027499;28;20214;-91
2023/07/11 07:10:20;;;;;;;5.77;3.80;;;;;;;;;;5032892;28;20419;-91
2023/07/11 07:13:14;;;;;;;3.57;3.00;;;;;;;;;;5033621;28;20230;-91
2023/07/11 07:16:13;;;;;;;7.23;4.00;;;;;;;;;;5033886;28;20219;-91
2023/07/11 07:18:46;;;;;;;4.60;3.97;;;;;;;;;;5033711;28;20233;-90
2023/07/11 07:21:29;;;;;;;5.03;3.30;;;;;;;;;;5033826;28;20203;-90
2023/07/11 07:24:08;;;;;;;5.60;3.00;;;;;;;;;;5033898;28;20245;-91
2023/07/11 07:26:51;;;;;;;5.53;3.57;;;;;;;;;;5032989;28;20219;-91
2023/07/11 07:29:31;;;;;;;4.83;3.10;;;;;;;;;;5032671;28;20271;-91
2023/07/11 07:32:04;;;;;;;4.20;2.90;;;;;;;;;;5032973;28;20240;-90
2023/07/11 07:34:47;;;;;;;4.97;2.83;;;;;;;;;;5033074;28;20204;-90
2023/07/11 07:37:36;;;;;;;4.73;2.67;;;;;;;;;;5032608;28;20259;-90
2023/07/11 07:43:39;;;;;;;5.37;2.47;;;;;;;;;;5033200;28;20200;-91
2023/07/11 07:49:34;;;;;;;1.77;0.90;;;;;;;;;;5028546;28;20208;-90
2023/07/11 07:52:26;;;;;;;2.47;1.80;;;;;;;;;;5033016;28;20255;-90
2023/07/11 07:55:14;;;;;;;2.63;1.83;;;;;;;;;;5033002;28;20216;-91
2023/07/11 07:57:54;;;;;;;2.83;1.67;;;;;;;;;;5038669;28;20201;-90
2023/07/11 08:00:33;;;;;;;3.50;1.40;;;;;;;;;;5038864;28;20200;-88
2023/07/11 08:03:01;;;;;;;3.77;2.03;;;;;;;;;;5028916;28;20294;-89
2023/07/11 08:05:35;;;;;;;3.83;1.33;;;;;;;;;;5023954;28;20214;-86
2023/07/11 08:08:05;;;;;;;2.70;1.87;;;;;;;;;;5031723;28;20223;-86
2023/07/11 08:10:34;;;;;;;3.80;1.33;;;;;;;;;;5031887;28;20198;-85
2023/07/11 08:13:04;;;;;;;2.53;1.13;;;;;;;;;;5023587;28;20200;-86
2023/07/11 08:15:35;;;;;;;1.70;1.17;;;;;;;;;;5032372;28;20230;-89
2023/07/11 08:18:04;;;;;;;5.13;1.93;;;;;;;;;;5033021;28;20270;-88
2023/07/11 08:20:33;;;;;;;2.43;1.80;;;;;;;;;;5025382;28;20229;-88
2023/07/11 08:23:15;;;;;;;3.20;0.97;;;;;;;;;;5031750;28;20203;-89
2023/07/11 08:25:44;;;;;;;2.67;1.70;;;;;;;;;;5032311;28;20288;-89
2023/07/11 08:28:14;;;;;;;2.70;2.27;;;;;;;;;;5036385;28;20238;-91
2023/07/11 08:30:43;;;;;;;2.27;1.60;;;;;;;;;;5034474;28;20301;-88
2023/07/11 08:33:12;;;;;;;4.87;2.27;;;;;;;;;;5035524;28;20203;-91
2023/07/11 08:35:45;;;;;;;5.70;1.87;;;;;;;;;;5034096;28;20206;-90
2023/07/11 08:38:14;;;;;;;2.73;1.47;;;;;;;;;;5027249;28;20245;-90
2023/07/11 08:40:45;;;;;;;4.47;1.90;;;;;;;;;;5030912;28;20207;-91
2023/07/11 08:43:19;;;;;;;3.87;1.40;;;;;;;;;;5034467;28;20207;-90
2023/07/11 08:45:51;;;;;;;2.53;1.60;;;;;;;;;;5028213;28;20218;-92
2023/07/11 08:48:38;;;;;;;5.27;2.33;;;;;;;;;;5030910;28;20226;-90
2023/07/11 08:51:08;;;;;;;1.33;1.10;;;;;;;;;;5030084;28;20224;-87
2023/07/11 08:53:39;;;;;;;6.00;2.30;;;;;;;;;;5020899;28;20213;-86
2023/07/11 08:56:15;;;;;;;1.97;1.17;;;;;;;;;;5024066;28;20221;-87
2023/07/11 08:58:44;;;;;;;5.07;2.20;;;;;;;;;;5021728;28;20215;-86
2023/07/11 09:01:18;;;;;;;1.33;1.17;;;;;;;;;;5044571;28;20203;-90
2023/07/11 09:03:58;;;;;;;6.60;1.97;;;;;;;;;;5034356;28;20289;-88
2023/07/11 09:06:37;;;;;;;2.17;1.57;;;;;;;;;;5038440;28;20206;-91
2023/07/11 09:09:12;;;;;;;4.93;1.50;;;;;;;;;;5031255;28;20260;-89
2023/07/11 09:11:46;;;;;;;7.10;2.03;;;;;;;;;;5031296;28;20254;-89
2023/07/11 09:14:25;;;;;;;6.87;2.80;;;;;;;;;;5033154;28;20210;-89
2023/07/11 09:17:09;;;;;;;3.90;2.07;;;;;;;;;;5031574;28;20205;-88
2023/07/11 09:19:50;;;;;;;2.63;1.33;;;;;;;;;;5028031;28;20206;-88
2023/07/11 09:22:22;;;;;;;3.60;1.53;;;;;;;;;;5027130;28;20285;-87
2023/07/11 09:24:54;;;;;;;4.53;2.03;;;;;;;;;;5027073;28;20206;-88
2023/07/11 09:27:25;;;;;;;4.33;2.50;;;;;;;;;;5032702;28;20257;-88
2023/07/11 09:29:55;;;;;;;2.57;1.37;;;;;;;;;;5029008;28;20214;-87
2023/07/11 09:32:29;;;;;;;1.70;1.33;;;;;;;;;;5029788;28;20202;-86
2023/07/11 09:34:57;;;;;;;1.60;1.10;;;;;;;;;;5034993;28;20249;-88
2023/07/11 09:37:30;;;;;;;3.50;1.90;;;;;;;;;;5029915;28;20245;-85
2023/07/11 09:40:03;;;;;;;2.27;1.10;;;;;;;;;;5028082;28;20200;-87
2023/07/11 09:42:40;;;;;;;5.67;1.93;;;;;;;;;;5029798;28;20215;-87
2023/07/11 09:45:12;;;;;;;2.40;1.50;;;;;;;;;;5028040;28;20202;-88
2023/07/11 09:47:41;;;;;;;1.27;0.83;;;;;;;;;;5029851;28;20222;-85
2023/07/11 09:50:17;;;;;;;3.50;1.57;;;;;;;;;;5024675;28;20219;-88
2023/07/11 09:53:10;;;;;;;2.80;1.80;;;;;;;;;;5031378;28;20213;-86
2023/07/11 09:55:38;;;;;;;2.63;1.57;;;;;;;;;;5031271;28;20202;-86
2023/07/11 09:58:07;;;;;;;1.00;0.83;;;;;;;;;;5031154;28;20203;-86
2023/07/11 10:00:44;;;;;;;1.87;1.00;;;;;;;;;;5031065;28;20218;-88
2023/07/11 10:03:17;;;;;;;1.53;1.30;;;;;;;;;;5020319;28;20249;-86
2023/07/11 10:05:46;;;;;;;1.40;1.00;;;;;;;;;;5028018;28;20215;-89
2023/07/11 10:08:18;;;;;;;2.70;1.20;;;;;;;;;;5032011;28;20219;-86
2023/07/11 10:10:48;;;;;;;1.33;1.03;;;;;;;;;;5033977;28;20207;-85
2023/07/11 10:13:17;;;;;;;5.07;1.10;;;;;;;;;;5033241;28;20211;-86
2023/07/11 10:16:01;;;;;;;2.80;1.13;;;;;;;;;;5030026;28;20221;-87
2023/07/11 10:18:31;;;;;;;1.80;0.80;;;;;;;;;;5024686;28;20205;-87
2023/07/11 10:21:01;;;;;;;3.63;1.13;;;;;;;;;;5029653;28;20263;-87
2023/07/11 10:23:29;;;;;;;4.50;2.07;;;;;;;;;;5032259;28;20205;-89
2023/07/11 10:26:06;;;;;;;1.37;1.17;;;;;;;;;;5026425;28;20214;-86
2023/07/11 10:28:38;;;;;;;3.63;1.60;;;;;;;;;;5023938;28;20226;-89
2023/07/11 10:31:10;;;;;;;2.77;1.87;;;;;;;;;;5029389;28;20210;-92
2023/07/11 10:33:43;;;;;;;3.20;2.53;;;;;;;;;;5031451;28;20206;-90
2023/07/11 10:36:24;;;;;;;2.03;1.33;;;;;;;;;;5028257;28;20206;-90
2023/07/11 10:41:47;;;;;;;1.97;1.10;;;;;;;;;;5028488;28;20199;-88
2023/07/11 10:44:19;;;;;;;3.20;1.33;;;;;;;;;;5034667;28;20305;-88
2023/07/11 10:46:52;;;;;;;2.60;1.27;;;;;;;;;;5034681;28;20204;-87
2023/07/11 10:49:23;;;;;;;3.70;1.20;;;;;;;;;;5033167;28;20222;-88
2023/07/11 10:51:56;;;;;;;4.23;1.37;;;;;;;;;;5017326;28;20202;-89
2023/07/11 10:54:26;;;;;;;2.53;1.10;;;;;;;;;;5036422;28;20204;-89
2023/07/11 10:56:57;;;;;;;1.20;1.10;;;;;;;;;;5038160;28;20212;-92
2023/07/11 10:59:29;;;;;;;4.33;1.10;;;;;;;;;;5036410;28;20276;-87
2023/07/11 11:02:04;;;;;;;2.70;0.93;;;;;;;;;;5033046;28;20219;-87
2023/07/11 11:04:50;;;;;;;6.80;2.47;;;;;;;;;;5033458;28;20260;-88
2023/07/11 11:07:23;;;;;;;4.77;1.47;;;;;;;;;;5032254;28;20230;-88
2023/07/11 11:09:55;;;;;;;1.50;1.20;;;;;;;;;;5032975;28;20250;-87
2023/07/11 11:12:30;;;;;;;2.80;1.20;;;;;;;;;;5032961;28;20212;-88
2023/07/11 11:15:04;;;;;;;1.87;1.10;;;;;;;;;;5033011;28;20198;-88
2023/07/11 11:17:40;;;;;;;3.33;1.30;;;;;;;;;;5031831;28;20222;-87
2023/07/11 11:20:13;;;;;;;3.60;1.60;;;;;;;;;;5032925;28;20228;-87
2023/07/11 11:22:47;;;;;;;6.37;2.27;;;;;;;;;;5033490;28;20203;-87
2023/07/11 11:25:19;;;;;;;1.07;0.97;;;;;;;;;;5032001;28;20210;-87
2023/07/11 11:27:52;;;;;;;2.20;1.30;;;;;;;;;;5031799;28;20253;-87
2023/07/11 11:30:27;;;;;;;3.50;1.23;;;;;;;;;;5032076;28;20207;-87
2023/07/11 11:33:01;;;;;;;4.23;1.60;;;;;;;;;;5032256;28;20255;-87
2023/07/11 11:35:35;;;;;;;1.23;0.83;;;;;;;;;;5032142;28;20219;-87
2023/07/11 11:38:25;;;;;;;2.00;1.67;;;;;;;;;;5032583;28;20245;-87
2023/07/11 11:40:57;;;;;;;2.83;1.83;;;;;;;;;;5030794;28;20208;-89
2023/07/11 11:43:28;;;;;;;2.63;1.33;;;;;;;;;;5032607;28;20215;-89
2023/07/11 11:46:03;;;;;;;3.40;2.57;;;;;;;;;;5032937;28;20198;-89
2023/07/11 11:48:41;;;;;;;4.17;1.47;;;;;;;;;;5033010;28;20219;-89
2023/07/11 11:51:15;;;;;;;3.37;1.87;;;;;;;;;;5032184;28;20214;-89
2023/07/11 11:53:46;;;;;;;5.87;2.57;;;;;;;;;;5032574;28;20212;-89
2023/07/11 11:56:16;;;;;;;3.27;2.03;;;;;;;;;;5032614;28;20217;-88
2023/07/11 11:58:55;;;;;;;6.93;2.10;;;;;;;;;;5030187;28;20341;-89
2023/07/11 12:01:54;;;;;;;;;;;;;;;;;;;;;
2023/07/11 12:04:48;;;;;;;3.40;1.87;;;;;;;;;;5023890;28;20294;-90
2023/07/11 12:10:39;;;;;;;2.90;1.53;;;;;;;;;;5026901;28;20244;-93
2023/07/11 12:13:19;;;;;;;2.83;1.37;;;;;;;;;;5027168;28;20217;-89
2023/07/11 12:15:59;;;;;;;3.30;1.50;;;;;;;;;;5019399;28;20235;-90
2023/07/11 12:18:39;;;;;;;1.47;1.37;;;;;;;;;;5022072;28;20222;-89
2023/07/11 12:21:33;;;;;;;2.23;2.03;;;;;;;;;;5022227;28;20195;-87
2023/07/11 12:24:41;;;;;;;2.13;1.80;;;;;;;;;;5025070;28;20205;-87
2023/07/11 12:27:33;;;;;;;1.80;1.70;;;;;;;;;;5019496;28;20228;-91
2023/07/11 12:30:02;;;;;;;1.33;1.03;;;;;;;;;;5019209;28;20216;-86
2023/07/11 12:32:40;;;;;;;7.13;3.40;;;;;;;;;;5023696;28;20217;-87
2023/07/11 12:35:54;;;;;;;1.40;1.30;;;;;;;;;;5021920;28;20272;-86
2023/07/11 12:38:33;;;;;;;2.73;1.57;;;;;;;;;;5021760;28;20272;-89
2023/07/11 12:41:13;;;;;;;6.87;1.73;;;;;;;;;;5017963;28;20259;-92
2023/07/11 12:43:47;;;;;;;3.03;1.73;;;;;;;;;;5032134;28;20286;-88
2023/07/11 12:49:51;;;;;;;4.13;2.07;;;;;;;;;;5026801;28;20306;-94
2023/07/11 12:55:30;;;;;;;3.17;1.80;;;;;;;;;;5029606;28;20207;-94
2023/07/11 12:58:00;;;;;;;1.03;0.93;;;;;;;;;;5027051;28;20246;-93
2023/07/11 13:00:35;;;;;;;1.73;1.27;;;;;;;;;;5025170;28;20193;-91
2023/07/11 13:06:35;;;;;;;3.37;1.23;;;;;;;;;;5006362;28;20282;-92
2023/07/11 13:12:02;;;;;;;3.70;1.10;;;;;;;;;;5025908;28;20283;-93
2023/07/11 13:22:00;;;;;;;6.10;2.47;;;;;;;;;;5027471;28;20200;-93
2023/07/11 13:28:01;;;;;;;2.40;1.60;;;;;;;;;;5019348;28;20244;-95
2023/07/11 13:33:39;;;;;;;1.63;1.13;;;;;;;;;;5019018;28;20240;-91
2023/07/11 13:39:53;;;;;;;6.23;2.47;;;;;;;;;;5018440;28;20231;-88
2023/07/11 13:42:27;;;;;;;2.07;1.30;;;;;;;;;;5022276;28;20270;-87
2023/07/11 13:44:57;;;;;;;2.10;1.30;;;;;;;;;;5029705;28;20204;-86
2023/07/11 13:47:33;;;;;;;2.07;1.40;;;;;;;;;;5026900;28;20256;-87
2023/07/11 13:50:09;;;;;;;2.80;2.07;;;;;;;;;;5023087;28;20304;-87
2023/07/11 13:52:40;;;;;;;1.10;1.00;;;;;;;;;;5023018;28;20214;-90
2023/07/11 13:55:14;;;;;;;1.03;1.03;;;;;;;;;;5018572;28;20218;-89
2023/07/11 13:57:43;;;;;;;4.67;2.03;;;;;;;;;;5025106;28;20215;-88
2023/07/11 14:00:12;;;;;;;1.83;1.73;;;;;;;;;;5026945;28;20241;-89
2023/07/11 14:02:44;;;;;;;5.10;1.57;;;;;;;;;;5035088;28;20276;-88
2023/07/11 14:05:15;;;;;;;5.00;2.57;;;;;;;;;;5028504;28;20219;-88
2023/07/11 14:07:44;;;;;;;4.57;2.67;;;;;;;;;;5031229;28;20269;-88
2023/07/11 14:10:13;;;;;;;2.80;2.30;;;;;;;;;;5025414;28;20237;-87
2023/07/11 14:12:43;;;;;;;5.53;2.83;;;;;;;;;;5024851;28;20198;-88
2023/07/11 14:15:16;;;;;;;3.53;2.03;;;;;;;;;;5026888;28;20215;-86
2023/07/11 14:17:47;;;;;;;1.50;1.40;;;;;;;;;;5031290;28;20222;-87
2023/07/11 14:20:16;;;;;;;2.20;1.33;;;;;;;;;;5029589;28;20206;-87
2023/07/11 14:22:46;;;;;;;3.73;2.93;;;;;;;;;;5020855;28;20210;-87
2023/07/11 14:25:16;;;;;;;2.30;1.83;;;;;;;;;;5032898;28;20244;-88
2023/07/11 14:27:47;;;;;;;2.97;1.90;;;;;;;;;;5033279;28;20247;-89
2023/07/11 14:30:17;;;;;;;1.20;1.10;;;;;;;;;;5025592;28;20214;-87
2023/07/11 14:32:47;;;;;;;5.53;1.93;;;;;;;;;;5024417;28;20219;-87
2023/07/11 14:35:17;;;;;;;1.53;1.43;;;;;;;;;;5020387;28;20208;-87
2023/07/11 14:37:57;;;;;;;1.97;0.87;;;;;;;;;;5029416;28;20252;-88
2023/07/11 14:40:26;;;;;;;1.03;1.00;;;;;;;;;;5026581;28;20251;-87
2023/07/11 14:42:55;;;;;;;3.60;0.70;;;;;;;;;;5023189;28;20234;-87
2023/07/11 14:45:25;;;;;;;1.60;1.10;;;;;;;;;;5027902;28;20209;-87
2023/07/11 14:47:55;;;;;;;2.07;1.23;;;;;;;;;;5022752;28;20291;-86
2023/07/11 14:50:26;;;;;;;3.77;1.73;;;;;;;;;;5026562;28;20313;-86
2023/07/11 14:52:55;;;;;;;4.97;2.17;;;;;;;;;;5019143;28;20306;-86
2023/07/11 14:55:24;;;;;;;3.87;1.60;;;;;;;;;;5025630;28;20224;-87
2023/07/11 14:57:57;;;;;;;1.77;1.67;;;;;;;;;;5022162;28;20220;-87
2023/07/11 15:00:27;;;;;;;1.03;0.97;;;;;;;;;;5028743;28;20217;-86
2023/07/11 15:02:58;;;;;;;1.70;1.43;;;;;;;;;;5025373;28;20266;-87
2023/07/11 15:05:28;;;;;;;1.73;1.63;;;;;;;;;;5022052;28;20191;-87
2023/07/11 15:08:00;;;;;;;0.93;0.93;;;;;;;;;;5023429;28;20296;-87
2023/07/11 15:10:31;;;;;;;2.43;1.40;;;;;;;;;;5024449;28;20212;-87
2023/07/11 15:13:01;;;;;;;2.30;2.10;;;;;;;;;;5021748;28;20229;-87
2023/07/11 15:15:34;;;;;;;3.77;1.77;;;;;;;;;;5024214;28;20214;-87
2023/07/11 15:18:05;;;;;;;2.10;1.30;;;;;;;;;;5031335;28;20195;-86
2023/07/11 15:20:33;;;;;;;15.67;1.90;;;;;;;;;;5024197;28;20211;-87
2023/07/11 15:23:03;;;;;;;1.73;1.57;;;;;;;;;;5026411;28;20211;-86
2023/07/11 15:25:33;;;;;;;2.03;1.90;;;;;;;;;;5022417;28;20239;-86
2023/07/11 15:28:02;;;;;;;2.90;2.70;;;;;;;;;;5027342;28;20235;-86
2023/07/11 15:30:31;;;;;;;2.00;1.80;;;;;;;;;;5025653;28;20309;-86
2023/07/11 15:32:59;;;;;;;2.37;1.87;;;;;;;;;;5026394;28;20198;-87
2023/07/11 15:35:29;;;;;;;3.10;2.90;;;;;;;;;;5027835;28;20223;-87
2023/07/11 15:38:01;;;;;;;3.53;2.33;;;;;;;;;;5023468;28;20234;-86
2023/07/11 15:40:31;;;;;;;1.80;1.50;;;;;;;;;;5027649;28;20294;-86
2023/07/11 15:43:02;;;;;;;1.73;1.20;;;;;;;;;;5024588;28;20234;-86
2023/07/11 15:45:32;;;;;;;2.03;1.77;;;;;;;;;;5023712;28;20203;-87
2023/07/11 15:48:01;;;;;;;1.87;1.60;;;;;;;;;;5024232;28;20252;-86
2023/07/11 15:50:31;;;;;;;2.30;0.90;;;;;;;;;;5028341;28;20219;-86
2023/07/11 15:53:00;;;;;;;1.27;1.17;;;;;;;;;;5020206;28;20210;-86
2023/07/11 15:55:30;;;;;;;2.47;2.07;;;;;;;;;;5023690;28;20281;-86
2023/07/11 15:57:59;;;;;;;2.50;1.83;;;;;;;;;;5026573;28;20298;-87
2023/07/11 16:00:29;;;;;;;3.53;2.20;;;;;;;;;;5023980;28;20221;-87
2023/07/11 16:02:58;;;;;;;4.10;1.70;;;;;;;;;;5024182;28;20211;-88
2023/07/11 16:05:28;;;;;;;3.30;2.47;;;;;;;;;;5019108;28;20211;-90